This is the latest recevied weather packets stored in our database for station/object KJ4EWA. If no packets are shown the sender has not sent any weather packets the latest 10 day(s).
| Time | Temp. | Humidity | Pressure | Rain* | Wind** | Luminosity | Snow |
|---|---|---|---|---|---|---|---|
| 1777665074 | 18.89° C | 99% | 1014.6 hPa | 0 mm | - | 83 W/m² | - |
| 1777664769 | 18.89° C | 98% | 1014.5 hPa | 0 mm | - | 97 W/m² | - |
| 1777664465 | 18.89° C | 97% | 1015 hPa | 0 mm | - | 34 W/m² | - |
| 1777664163 | 18.89° C | 98% | 1014.8 hPa | 0 mm | - | 84 W/m² | - |
| 1777663861 | 18.89° C | 98% | 1014.8 hPa | 0 mm | - | 77 W/m² | - |
| 1777663557 | 18.89° C | 99% | 1014.9 hPa | 0 mm | - | 114 W/m² | - |
| 1777663255 | 18.89° C | 98% | 1015.7 hPa | 0 mm | - | 54 W/m² | - |
| 1777662952 | 18.89° C | 97% | 1015.7 hPa | 0 mm | - | 72 W/m² | - |
| 1777662649 | 18.89° C | 97% | 1015.9 hPa | 0 mm | - | 67 W/m² | - |
| 1777662345 | 18.89° C | 96% | 1015.6 hPa | 0 mm | - | 49 W/m² | - |
| 1777662041 | 18.89° C | 96% | 1016 hPa | 0 mm | - | 57 W/m² | - |
| 1777661737 | 19.44° C | 96% | 1015.7 hPa | 0 mm | - | 61 W/m² | - |
| 1777661433 | 19.44° C | 95% | 1015.7 hPa | 0 mm | - | 60 W/m² | - |
| 1777661129 | 19.44° C | 94% | 1015.7 hPa | 0 mm | - | 64 W/m² | - |
| 1777660829 | 19.44° C | 93% | 1015.6 hPa | 0 mm | - | 66 W/m² | - |
| 1777660526 | 20° C | 95% | 1015.6 hPa | 0 mm | - | 76 W/m² | - |
| 1777660223 | 20° C | 96% | 1015.4 hPa | 0 mm | - | 137 W/m² | - |
| 1777659919 | 20° C | 96% | 1015.6 hPa | 0 mm | - | 111 W/m² | - |
| 1777659616 | 20° C | 95% | 1016 hPa | 0 mm | - | 64 W/m² | - |
| 1777659314 | 20.56° C | 96% | 1015.9 hPa | 0 mm | - | 92 W/m² | - |
| 1777659010 | 20° C | 95% | 1015.8 hPa | 0 mm | - | 98 W/m² | - |
| 1777658708 | 20.56° C | 96% | 1015.6 hPa | 0 mm | - | 103 W/m² | - |
| 1777658403 | 20° C | 96% | 1015.7 hPa | 0 mm | - | 111 W/m² | - |
| 1777658101 | 20° C | 95% | 1016 hPa | 0 mm | - | 67 W/m² | - |
| 1777657797 | 20.56° C | 95% | 1015.8 hPa | 0 mm | - | 135 W/m² | - |
* Rain latest hour (hover to see other rain measurements)
** Current wind speed in m/s (hover to see current wind gust speed)